Time;durP1;ratioP1;P1;durP2;ratioP2;P2;SDS_P1;SDS_P2;PMS_P1;PMS_P2;Temp;Humidity;BMP_temperature;BMP_pressure;BME280_temperature;BME280_humidity;BME280_pressure;Samples;Min_cycle;Max_cycle;Signal;HPM_P1;HPM_P2
2023/03/23 00:01:26;;;;;;;2.4;1.9;;;;;;;8.43;78.53418;934.0613;;;;
2023/03/23 00:03:49;;;;;;;2;1.8;;;;;;;8.41;78.74707;934.1658;;;;
2023/03/23 00:06:22;;;;;;;2.8;1.7;;;;;;;8.35;79.04199;934.1085;;;;
2023/03/23 00:08:56;;;;;;;2.1;1.5;;;;;;;8.42;78.79395;934.0683;;;;
2023/03/23 00:11:31;;;;;;;5.2;2;;;;;;;8.38;78.85352;934.0914;;;;
2023/03/23 00:14:02;;;;;;;2;1.5;;;;;;;8.28;79.29004;934.0122;;;;
2023/03/23 00:16:32;;;;;;;3;1.4;;;;;;;8.22;79.6875;934.014;;;;
2023/03/23 00:19:15;;;;;;;2.8;1.5;;;;;;;8.19;79.89746;934.0332;;;;
2023/03/23 00:21:53;;;;;;;1.5;1.3;;;;;;;8.29;79.65625;933.9869;;;;
2023/03/23 00:24:18;;;;;;;2.2;1.4;;;;;;;8.32;79.43457;934.0531;;;;
2023/03/23 00:26:48;;;;;;;1.4;1.3;;;;;;;8.42;79.13477;933.9938;;;;
2023/03/23 00:29:32;;;;;;;1.8;1.6;;;;;;;8.5;78.6709;934.0009;;;;
2023/03/23 00:32:01;;;;;;;2.7;1.7;;;;;;;8.46;78.77734;933.9989;;;;
2023/03/23 00:34:32;;;;;;;3;1.7;;;;;;;8.43;78.80566;933.9288;;;;
2023/03/23 00:36:56;;;;;;;5;1.7;;;;;;;8.44;78.91113;933.9423;;;;
2023/03/23 00:39:28;;;;;;;3.7;1.9;;;;;;;8.42;78.82813;933.97;;;;
2023/03/23 00:41:54;;;;;;;2.5;1.6;;;;;;;8.18;79.61426;934.0069;;;;
2023/03/23 00:44:28;;;;;;;7.4;4.9;;;;;;;8.16;79.87012;934.0352;;;;
2023/03/23 00:46:56;;;;;;;7.9;4.7;;;;;;;8.2;79.91211;933.9675;;;;
2023/03/23 00:49:18;;;;;;;3.3;1.9;;;;;;;8.23;79.69043;933.9792;;;;
2023/03/23 00:51:45;;;;;;;2.9;1.9;;;;;;;8.34;79.26758;933.937;;;;
2023/03/23 00:54:10;;;;;;;4.3;2.1;;;;;;;8.46;78.77734;933.9299;;;;
2023/03/23 00:56:38;;;;;;;3.6;2.2;;;;;;;8.54;78.43066;933.9283;;;;
2023/03/23 00:59:03;;;;;;;2.9;1.9;;;;;;;8.59;78.3125;933.9692;;;;
2023/03/23 01:01:33;;;;;;;2;1.5;;;;;;;8.45;78.67578;933.9108;;;;
2023/03/23 01:04:03;;;;;;;2.5;2.2;;;;;;;8.1;80.31445;933.9211;;;;
2023/03/23 01:06:26;;;;;;;2.6;1.7;;;;;;;8.05;80.81641;933.9714;;;;
2023/03/23 01:08:53;;;;;;;2.6;1.8;;;;;;;8.06;80.99805;933.9913;;;;
2023/03/23 01:11:18;;;;;;;2.7;1.6;;;;;;;8.05;81.05371;933.9975;;;;
2023/03/23 01:13:48;;;;;;;1.6;1.5;;;;;;;7.94;81.32617;933.9705;;;;
2023/03/23 01:16:17;;;;;;;2.8;1.4;;;;;;;7.74;82.78809;933.921;;;;
2023/03/23 01:18:46;;;;;;;2.1;1.9;;;;;;;7.82;82.56543;933.9096;;;;
2023/03/23 01:21:11;;;;;;;2.4;1.6;;;;;;;7.94;81.95215;933.8817;;;;
2023/03/23 01:23:36;;;;;;;1.9;1.6;;;;;;;7.95;81.83984;933.8279;;;;
2023/03/23 01:26:01;;;;;;;3.3;1.9;;;;;;;7.97;81.67383;933.6863;;;;
2023/03/23 01:28:26;;;;;;;3;2;;;;;;;8;81.19238;933.6731;;;;
2023/03/23 01:30:51;;;;;;;3.3;2.3;;;;;;;8.08;80.79688;933.7203;;;;
2023/03/23 01:33:17;;;;;;;4.2;2;;;;;;;8.15;80.30957;933.7297;;;;
2023/03/23 01:35:43;;;;;;;2.5;2;;;;;;;8.14;80.50293;933.6021;;;;
2023/03/23 01:38:08;;;;;;;2.9;2.1;;;;;;;8.23;79.95313;933.7294;;;;
2023/03/23 01:40:35;;;;;;;2.9;1.8;;;;;;;8.24;79.79395;933.67;;;;
2023/03/23 01:43:00;;;;;;;3.8;2.3;;;;;;;8.21;79.82324;933.7292;;;;
2023/03/23 01:45:26;;;;;;;2.5;1.6;;;;;;;8.16;80.07617;933.6331;;;;
2023/03/23 01:47:51;;;;;;;3;1.6;;;;;;;8.07;80.5;933.717;;;;
2023/03/23 01:50:20;;;;;;;4.7;2.1;;;;;;;8.02;80.83105;933.6752;;;;
2023/03/23 01:52:46;;;;;;;3;1.7;;;;;;;7.86;81.52832;933.6437;;;;
2023/03/23 01:55:12;;;;;;;1.7;1.5;;;;;;;7.73;82.3418;933.6632;;;;
2023/03/23 01:57:42;;;;;;;2.8;1.4;;;;;;;7.78;82.28418;933.6275;;;;
2023/03/23 02:00:14;;;;;;;2.2;1.5;;;;;;;7.81;82.11914;933.571;;;;
2023/03/23 02:02:35;;;;;;;1.4;1.3;;;;;;;7.86;82.07324;933.5486;;;;
2023/03/23 02:05:03;;;;;;;5.8;2.1;;;;;;;7.9;81.88867;933.6094;;;;
2023/03/23 02:07:29;;;;;;;2.1;1.6;;;;;;;7.93;81.58691;933.5305;;;;
2023/03/23 02:13:24;;;;;;;4.1;1.9;;;;;;;8.05;80.92871;933.5542;;;;
2023/03/23 02:15:52;;;;;;;3.4;2.1;;;;;;;7.98;81.35742;933.5595;;;;
2023/03/23 02:18:18;;;;;;;3.3;1.9;;;;;;;8.02;81.25098;933.4913;;;;
2023/03/23 02:20:59;;;;;;;3.8;2.1;;;;;;;7.97;81.43555;933.5491;;;;
2023/03/23 02:23:25;;;;;;;2.8;2.1;;;;;;;7.99;81.62012;933.4994;;;;
2023/03/23 02:25:50;;;;;;;4.2;2.5;;;;;;;8.06;81.16895;933.5402;;;;
2023/03/23 02:28:15;;;;;;;4.3;2.5;;;;;;;8.13;80.83008;933.5321;;;;
2023/03/23 02:30:44;;;;;;;4.3;2.3;;;;;;;8.1;80.87988;933.5095;;;;
2023/03/23 02:33:11;;;;;;;3.1;2;;;;;;;8.03;81.11816;933.6001;;;;
2023/03/23 02:35:36;;;;;;;3.3;2.6;;;;;;;8.05;81.23535;933.517;;;;
2023/03/23 02:38:02;;;;;;;2.2;1.7;;;;;;;7.94;81.30566;933.4006;;;;
2023/03/23 02:40:26;;;;;;;3.1;1.8;;;;;;;7.82;81.77051;933.3968;;;;
2023/03/23 02:42:53;;;;;;;5.1;2.4;;;;;;;7.8;81.83594;933.3795;;;;
2023/03/23 02:45:18;;;;;;;2.7;2.1;;;;;;;7.8;81.77832;933.3788;;;;
2023/03/23 02:47:46;;;;;;;2.7;1.9;;;;;;;7.89;81.39746;933.4293;;;;
2023/03/23 02:50:11;;;;;;;2.2;1.9;;;;;;;7.9;81.45703;933.4072;;;;
2023/03/23 02:52:40;;;;;;;2.2;1.7;;;;;;;7.97;81.00195;933.3683;;;;
2023/03/23 02:56:08;;;;;;;3.1;1.7;;;;;;;8;80.94043;933.4035;;;;
2023/03/23 02:58:34;;;;;;;2.6;1.9;;;;;;;7.93;81.16699;933.4155;;;;
2023/03/23 03:01:03;;;;;;;2.2;1.7;;;;;;;7.81;81.84668;933.4462;;;;
2023/03/23 03:03:28;;;;;;;2;1.5;;;;;;;7.73;82.20703;933.4548;;;;
2023/03/23 03:06:00;;;;;;;1.7;1.4;;;;;;;7.72;82.45313;933.4373;;;;
2023/03/23 03:08:24;;;;;;;1.9;1.4;;;;;;;7.69;82.56152;933.4504;;;;
2023/03/23 03:10:50;;;;;;;2.5;1.7;;;;;;;7.71;82.51953;933.4483;;;;
2023/03/23 03:13:15;;;;;;;1.9;1.5;;;;;;;7.73;82.42285;933.4192;;;;
2023/03/23 03:15:40;;;;;;;3;1.8;;;;;;;7.81;82.17578;933.3812;;;;
2023/03/23 03:18:05;;;;;;;2.8;1.7;;;;;;;7.78;82.25;933.442;;;;
2023/03/23 03:20:30;;;;;;;2.6;1.6;;;;;;;7.61;82.99023;933.4352;;;;
2023/03/23 03:22:55;;;;;;;2.4;2;;;;;;;7.63;83.19629;933.4141;;;;
2023/03/23 03:25:22;;;;;;;4.9;1.7;;;;;;;7.69;82.95898;933.498;;;;
2023/03/23 03:27:52;;;;;;;1.7;1.6;;;;;;;7.7;82.94922;933.4861;;;;
2023/03/23 03:30:16;;;;;;;3.8;1.7;;;;;;;7.75;82.70996;933.4171;;;;
2023/03/23 03:32:43;;;;;;;3.5;2;;;;;;;7.8;82.36914;933.5595;;;;
2023/03/23 03:35:08;;;;;;;3.6;1.7;;;;;;;7.76;82.49609;933.563;;;;
2023/03/23 03:37:34;;;;;;;2;1.6;;;;;;;7.75;82.34668;933.5463;;;;
2023/03/23 03:40:02;;;;;;;2.2;1.7;;;;;;;7.7;82.58594;933.5186;;;;
2023/03/23 03:42:27;;;;;;;2.8;1.6;;;;;;;7.63;82.68555;933.4995;;;;
2023/03/23 03:44:54;;;;;;;3;1.8;;;;;;;7.45;83.49121;933.5129;;;;
2023/03/23 03:47:19;;;;;;;2.5;1.8;;;;;;;7.37;84.13281;933.5114;;;;
2023/03/23 03:49:50;;;;;;;2.2;1.5;;;;;;;7.21;85.14355;933.5472;;;;
2023/03/23 03:52:15;;;;;;;2.5;1.7;;;;;;;7.22;85.20215;933.4959;;;;
2023/03/23 03:54:43;;;;;;;2.4;1.6;;;;;;;7.25;85.16211;933.524;;;;
2023/03/23 03:57:08;;;;;;;5;2.9;;;;;;;7.25;85.02637;933.4717;;;;
2023/03/23 03:59:37;;;;;;;4.5;2.7;;;;;;;7.24;84.86719;933.5215;;;;
2023/03/23 04:02:47;;;;;;;2.5;2;;;;;;;7.22;84.81641;933.5402;;;;
2023/03/23 04:05:11;;;;;;;4.9;2.4;;;;;;;7.14;85.11816;933.58;;;;
2023/03/23 04:07:43;;;;;;;2.9;2.1;;;;;;;7.11;85.33887;933.635;;;;
2023/03/23 04:10:14;;;;;;;2.1;1.9;;;;;;;7.12;85.20508;933.6778;;;;
2023/03/23 04:12:39;;;;;;;2.5;2;;;;;;;7.1;85.31445;933.657;;;;
2023/03/23 04:15:07;;;;;;;2.8;2;;;;;;;7.13;85.40918;933.6938;;;;
2023/03/23 04:17:32;;;;;;;2.4;1.7;;;;;;;7.2;85.17383;933.6766;;;;
2023/03/23 04:20:06;;;;;;;2.6;1.6;;;;;;;7.29;84.73047;933.676;;;;
2023/03/23 04:22:31;;;;;;;4.7;2.3;;;;;;;7.33;84.02441;933.705;;;;
2023/03/23 04:25:00;;;;;;;3.7;2.6;;;;;;;7.36;83.83496;933.767;;;;
2023/03/23 04:27:27;;;;;;;4.1;2.7;;;;;;;7.33;83.88672;933.7841;;;;
2023/03/23 04:29:51;;;;;;;4.7;2.5;;;;;;;7.26;84.02148;933.829;;;;
2023/03/23 04:32:19;;;;;;;3.3;2;;;;;;;7.24;84.42383;933.8691;;;;
2023/03/23 04:34:45;;;;;;;2.7;1.8;;;;;;;7.19;84.70996;933.8222;;;;
2023/03/23 04:37:10;;;;;;;3.6;2.1;;;;;;;7.15;85.06348;933.8817;;;;
2023/03/23 04:39:45;;;;;;;5.5;2;;;;;;;7.2;84.85645;933.8603;;;;
2023/03/23 04:42:07;;;;;;;3.8;2.2;;;;;;;7.27;84.37207;933.8775;;;;
2023/03/23 04:47:33;;;;;;;2.2;2;;;;;;;7.23;84.29785;933.873;;;;
2023/03/23 04:50:01;;;;;;;2.2;2;;;;;;;7.11;84.81836;933.8844;;;;
2023/03/23 04:52:28;;;;;;;3.5;2.2;;;;;;;7.11;84.90918;933.8748;;;;
2023/03/23 04:54:56;;;;;;;2.5;1.9;;;;;;;7.08;85.0957;933.8539;;;;
2023/03/23 04:57:21;;;;;;;2.1;1.9;;;;;;;7.1;85.15625;933.7988;;;;
2023/03/23 04:59:47;;;;;;;3.3;2.1;;;;;;;7.08;85.33203;933.7817;;;;
2023/03/23 05:02:12;;;;;;;2.8;2.1;;;;;;;7.09;85.3584;933.778;;;;
2023/03/23 05:04:43;;;;;;;2.9;2.4;;;;;;;7.08;85.52637;933.834;;;;
2023/03/23 05:13:01;;;;;;;5;2.4;;;;;;;6.89;86.54102;933.9384;;;;
2023/03/23 05:15:37;;;;;;;4.8;2.5;;;;;;;6.95;86.40723;933.9822;;;;
2023/03/23 05:18:03;;;;;;;5.6;3.3;;;;;;;7.04;85.93652;933.9465;;;;
2023/03/23 05:20:33;;;;;;;6.6;4.3;;;;;;;7.11;85.46582;933.9351;;;;
2023/03/23 05:23:04;;;;;;;7.8;4.2;;;;;;;7.14;85.19922;933.9055;;;;
2023/03/23 05:25:39;;;;;;;6.1;4;;;;;;;7.12;85.06934;933.8964;;;;
2023/03/23 05:28:03;;;;;;;2.9;2.5;;;;;;;7.1;85.06543;933.8732;;;;
2023/03/23 05:30:33;;;;;;;3.6;2.2;;;;;;;7.13;85.01465;933.7874;;;;
2023/03/23 05:33:03;;;;;;;2.6;2.1;;;;;;;7.19;84.9248;933.8689;;;;
2023/03/23 05:35:29;;;;;;;2.8;2.3;;;;;;;7.22;84.94141;933.8911;;;;
2023/03/23 05:37:58;;;;;;;2.8;2.5;;;;;;;7.32;84.58691;933.8972;;;;
2023/03/23 05:40:28;;;;;;;4.9;2.8;;;;;;;7.39;84.58008;933.8111;;;;
2023/03/23 05:42:55;;;;;;;5.7;3.8;;;;;;;7.53;83.94824;933.7625;;;;
2023/03/23 05:45:23;;;;;;;10.5;5.4;;;;;;;7.61;83.58008;933.7855;;;;
2023/03/23 05:47:48;;;;;;;6.9;4.2;;;;;;;7.7;83.3125;933.7952;;;;
2023/03/23 05:50:19;;;;;;;8;4.6;;;;;;;7.76;83.41504;933.8237;;;;
2023/03/23 05:52:47;;;;;;;3.7;2.6;;;;;;;7.95;82.44141;933.8708;;;;
2023/03/23 05:55:12;;;;;;;4;2.5;;;;;;;8.08;81.7168;933.8201;;;;
2023/03/23 05:57:43;;;;;;;4.1;2.4;;;;;;;8.46;80.83594;933.8022;;;;
2023/03/23 06:00:19;;;;;;;3.8;2.5;;;;;;;9;77.22852;933.8131;;;;
2023/03/23 06:02:43;;;;;;;10.5;5.6;;;;;;;8.99;77.06641;933.7748;;;;
2023/03/23 06:05:07;;;;;;;8;4.9;;;;;;;8.89;77.10547;933.8368;;;;
2023/03/23 06:07:36;;;;;;;4.6;2.4;;;;;;;8.99;77.28418;933.8456;;;;
2023/03/23 06:10:01;;;;;;;4.7;2.3;;;;;;;9.17;76.8125;933.8527;;;;
2023/03/23 06:12:29;;;;;;;5.4;2.8;;;;;;;9.18;76.15527;933.8258;;;;
2023/03/23 06:14:54;;;;;;;3.7;2.7;;;;;;;8.89;76.49121;933.8225;;;;
2023/03/23 06:17:27;;;;;;;4.8;2.8;;;;;;;8.75;77.40918;933.8416;;;;
2023/03/23 06:19:52;;;;;;;4.9;2.8;;;;;;;8.69;78.24219;933.838;;;;
2023/03/23 06:22:18;;;;;;;5.8;3.1;;;;;;;8.78;78.05273;933.6935;;;;
2023/03/23 06:24:43;;;;;;;3.9;2.9;;;;;;;8.86;77.63379;933.7436;;;;
2023/03/23 06:27:10;;;;;;;5.3;2.5;;;;;;;8.86;77.98633;933.8365;;;;
2023/03/23 06:29:36;;;;;;;6.1;3.2;;;;;;;8.77;78.58496;933.8784;;;;
2023/03/23 06:32:03;;;;;;;8.4;4.2;;;;;;;8.75;78.43262;933.8448;;;;
2023/03/23 06:34:28;;;;;;;5.1;3;;;;;;;8.66;78.71387;933.7441;;;;
2023/03/23 06:36:56;;;;;;;4.3;2.6;;;;;;;8.65;78.66504;933.7375;;;;
2023/03/23 06:39:22;;;;;;;6;3.3;;;;;;;8.68;78.79492;933.7633;;;;
2023/03/23 06:41:49;;;;;;;2.5;2.3;;;;;;;8.83;78.57422;933.7085;;;;
2023/03/23 06:44:15;;;;;;;4.9;2.5;;;;;;;8.83;77.73145;933.6458;;;;
2023/03/23 06:46:45;;;;;;;4.9;2.7;;;;;;;8.92;77.46484;933.5829;;;;
2023/03/23 06:49:14;;;;;;;4.7;3;;;;;;;8.92;77.36035;933.5639;;;;
2023/03/23 06:51:39;;;;;;;3.8;2.2;;;;;;;8.91;77.51855;933.5424;;;;
2023/03/23 06:54:10;;;;;;;3.6;2.5;;;;;;;8.94;79.26563;933.4403;;;;
2023/03/23 06:56:39;;;;;;;4.6;2.7;;;;;;;9.01;79.32227;933.5347;;;;
2023/03/23 06:59:04;;;;;;;4;2.5;;;;;;;9.03;77.25684;933.5452;;;;
2023/03/23 07:01:31;;;;;;;3.7;2.5;;;;;;;9.04;77.14258;933.5119;;;;
2023/03/23 07:12:28;;;;;;;4.4;2.4;;;;;;;9.22;76.4707;933.3141;;;;
2023/03/23 07:14:55;;;;;;;2.8;2.4;;;;;;;9.23;76.3584;933.342;;;;
2023/03/23 07:17:20;;;;;;;4.7;3.1;;;;;;;9.29;76.2998;933.4027;;;;
2023/03/23 07:19:48;;;;;;;7.7;2.9;;;;;;;9.52;76.10059;933.4114;;;;
2023/03/23 07:22:13;;;;;;;3.9;2.9;;;;;;;9.69;76.42676;933.4436;;;;
2023/03/23 07:24:42;;;;;;;5.5;3.3;;;;;;;9.9;76.27148;933.3836;;;;
2023/03/23 07:27:11;;;;;;;5.5;3.6;;;;;;;10.15;75.00488;933.4675;;;;
2023/03/23 07:29:38;;;;;;;4.7;3;;;;;;;10.47;73.9541;933.4469;;;;
2023/03/23 07:32:08;;;;;;;7.1;3.8;;;;;;;10.92;71.44629;933.4749;;;;
2023/03/23 07:34:37;;;;;;;5.9;3.5;;;;;;;11.26;67.96973;933.4267;;;;
2023/03/23 07:37:02;;;;;;;5.2;3.8;;;;;;;11.45;66.64746;933.4722;;;;
2023/03/23 07:39:31;;;;;;;4.2;3.3;;;;;;;12.02;66.33496;933.4661;;;;
2023/03/23 07:41:56;;;;;;;4.9;2.9;;;;;;;12.46;64.20117;933.4303;;;;
2023/03/23 07:44:25;;;;;;;5.1;2.6;;;;;;;12.38;63.3623;933.4711;;;;
2023/03/23 07:46:54;;;;;;;4.4;2.8;;;;;;;12.24;64.14453;933.4534;;;;
2023/03/23 07:49:19;;;;;;;7;3.2;;;;;;;12.18;64.68652;933.3641;;;;
2023/03/23 07:51:55;;;;;;;5.2;3;;;;;;;12.19;64.37695;933.4016;;;;
2023/03/23 07:54:20;;;;;;;22.3;12;;;;;;;12.03;64.83594;933.2595;;;;
2023/03/23 07:56:46;;;;;;;23.3;12.4;;;;;;;12.13;64.15039;933.3611;;;;
2023/03/23 08:00:15;;;;;;;5.6;3.4;;;;;;;12.1;64.33105;933.4108;;;;
2023/03/23 08:02:38;;;;;;;3.8;2.9;;;;;;;12.33;63.58496;933.3221;;;;
2023/03/23 08:08:06;;;;;;;4.4;3;;;;;;;13.05;62.09473;933.4216;;;;
2023/03/23 08:10:37;;;;;;;4.7;2.8;;;;;;;13.24;61.04102;933.4437;;;;
2023/03/23 08:13:09;;;;;;;3.6;3;;;;;;;13.43;59.5498;933.4447;;;;
2023/03/23 08:15:40;;;;;;;3.6;2.6;;;;;;;13.64;59.49902;933.4478;;;;
2023/03/23 08:18:11;;;;;;;4.4;2.9;;;;;;;13.65;58.08691;933.4348;;;;
2023/03/23 08:20:44;;;;;;;3.4;2.5;;;;;;;14.03;57.8252;933.4208;;;;
2023/03/23 08:23:08;;;;;;;4;2.4;;;;;;;14.12;56.90625;933.3653;;;;
2023/03/23 08:25:36;;;;;;;4.6;2.9;;;;;;;14.4;57.50586;933.4559;;;;
2023/03/23 08:28:01;;;;;;;2.7;2.4;;;;;;;14.64;57.90527;933.411;;;;
2023/03/23 08:30:33;;;;;;;4.9;2.8;;;;;;;14.59;56.6084;933.4323;;;;
2023/03/23 08:32:58;;;;;;;4.5;2.9;;;;;;;14.23;56.33301;933.4115;;;;
2023/03/23 08:35:25;;;;;;;4.2;2.9;;;;;;;14.27;57.08594;933.4358;;;;
2023/03/23 08:37:52;;;;;;;6.1;3.7;;;;;;;14.27;56.1084;933.451;;;;
2023/03/23 08:40:19;;;;;;;6.3;3.4;;;;;;;14.47;56.39648;933.4804;;;;
2023/03/23 08:42:48;;;;;;;4.1;3.7;;;;;;;14.66;54.79688;933.4565;;;;
2023/03/23 08:45:14;;;;;;;4.4;4;;;;;;;14.79;54.98535;933.4641;;;;
2023/03/23 08:47:42;;;;;;;7.1;3.9;;;;;;;14.87;54.41895;933.5282;;;;
2023/03/23 08:53:36;;;;;;;5.4;3.3;;;;;;;15.16;52.70117;933.4503;;;;
2023/03/23 08:56:04;;;;;;;4.7;3.3;;;;;;;15.4;52.23438;933.4812;;;;
2023/03/23 08:58:29;;;;;;;4.4;3.3;;;;;;;15.57;51.19238;933.4183;;;;
2023/03/23 09:00:56;;;;;;;4.2;2.9;;;;;;;15.63;51.47559;933.4339;;;;
2023/03/23 09:03:21;;;;;;;2.8;2.5;;;;;;;15.94;52.17188;933.4814;;;;
2023/03/23 09:05:50;;;;;;;3.5;2.7;;;;;;;16.39;50.73145;933.3962;;;;
2023/03/23 09:08:15;;;;;;;3.5;3.2;;;;;;;16.3;48.99707;933.4478;;;;
2023/03/23 09:10:40;;;;;;;6;3.6;;;;;;;16.44;49.05957;933.4074;;;;
2023/03/23 09:13:07;;;;;;;4.5;3.2;;;;;;;16.34;48.93262;933.4083;;;;
2023/03/23 09:15:34;;;;;;;4.3;3.3;;;;;;;16.33;48.21387;933.4456;;;;
2023/03/23 09:18:00;;;;;;;4;3.3;;;;;;;16.4;49.04297;933.4683;;;;
2023/03/23 09:20:25;;;;;;;4;3.3;;;;;;;16.39;48.78906;933.4836;;;;
2023/03/23 09:22:50;;;;;;;5.2;3.1;;;;;;;16.43;48.93262;933.4252;;;;
2023/03/23 09:25:21;;;;;;;5.2;3.2;;;;;;;16.35;48.94531;933.5206;;;;
2023/03/23 09:27:46;;;;;;;4.7;3.3;;;;;;;16.46;49.47852;933.5887;;;;
2023/03/23 09:30:10;;;;;;;11.5;5.8;;;;;;;16.45;50.78516;933.5309;;;;
2023/03/23 09:32:41;;;;;;;11.1;6.1;;;;;;;16.59;50.61719;933.4606;;;;
2023/03/23 09:35:12;;;;;;;4.9;3.9;;;;;;;16.66;50.35742;933.395;;;;
2023/03/23 09:37:37;;;;;;;5;3.5;;;;;;;16.85;49.34961;933.3053;;;;
2023/03/23 09:40:03;;;;;;;11;6.4;;;;;;;17.1;48.74023;933.3318;;;;
2023/03/23 09:42:26;;;;;;;4.1;3.1;;;;;;;17.17;48.53809;933.3015;;;;
2023/03/23 09:44:52;;;;;;;5.3;3.3;;;;;;;17.32;48.61328;933.2876;;;;
2023/03/23 09:47:18;;;;;;;7.8;4.5;;;;;;;17.51;48.44824;933.239;;;;
2023/03/23 09:49:43;;;;;;;12;7.1;;;;;;;17.58;47.77148;933.2436;;;;
2023/03/23 09:52:09;;;;;;;11.8;6.9;;;;;;;17.89;47.22559;933.2162;;;;
2023/03/23 09:54:35;;;;;;;8.6;5.1;;;;;;;18.37;46.54492;933.2106;;;;
2023/03/23 09:57:00;;;;;;;4.8;3.7;;;;;;;18.51;44.43066;933.1861;;;;
2023/03/23 09:59:28;;;;;;;4.9;3.7;;;;;;;18.79;44.5752;933.2363;;;;
2023/03/23 10:01:53;;;;;;;4.8;3.4;;;;;;;19.4;44.27637;933.1195;;;;
2023/03/23 10:04:18;;;;;;;5.1;3.8;;;;;;;19.88;43.2041;933.0931;;;;
2023/03/23 10:06:44;;;;;;;5.1;3.6;;;;;;;20.75;41.81641;933.0891;;;;
2023/03/23 10:09:10;;;;;;;4.7;3.3;;;;;;;20.86;39.69922;933.086;;;;
2023/03/23 10:11:39;;;;;;;5.4;3.6;;;;;;;21.42;39.77246;933.1004;;;;
2023/03/23 10:14:04;;;;;;;4.1;3.5;;;;;;;21.89;37.63574;933.1192;;;;
2023/03/23 10:16:29;;;;;;;5.2;3.8;;;;;;;21.97;37.2793;933.1076;;;;
2023/03/23 10:18:54;;;;;;;4.6;3.5;;;;;;;21.03;37.39941;933.1638;;;;
2023/03/23 10:21:22;;;;;;;7.3;5;;;;;;;21.08;38.08203;933.1216;;;;
2023/03/23 10:23:49;;;;;;;5.6;4.1;;;;;;;20.85;38.26074;933.1172;;;;
2023/03/23 10:26:17;;;;;;;5.4;3.9;;;;;;;21.01;37.37402;933.1766;;;;
2023/03/23 10:28:43;;;;;;;5.8;3.4;;;;;;;21.23;37.48633;933.1417;;;;
2023/03/23 10:31:08;;;;;;;6.7;4;;;;;;;21.12;37.59375;933.1206;;;;
2023/03/23 10:33:33;;;;;;;5;3.6;;;;;;;20.46;35.58789;933.1755;;;;
2023/03/23 10:36:00;;;;;;;5.9;3.7;;;;;;;20.22;36.24512;933.1779;;;;
2023/03/23 10:38:23;;;;;;;5.8;3.5;;;;;;;20.25;36.59766;933.1253;;;;
2023/03/23 10:40:48;;;;;;;4;3.1;;;;;;;20.46;37.57324;933.1593;;;;
2023/03/23 10:43:13;;;;;;;4.7;3.6;;;;;;;19.82;37.50684;933.1872;;;;
2023/03/23 10:45:41;;;;;;;4.7;3.6;;;;;;;19.77;39.18164;933.1802;;;;
2023/03/23 10:48:12;;;;;;;4.7;3.8;;;;;;;19.68;37.18066;933.179;;;;
2023/03/23 10:50:38;;;;;;;5.5;3.7;;;;;;;19.81;38.82422;933.1981;;;;
2023/03/23 10:53:07;;;;;;;4;3.6;;;;;;;19.89;37.30273;933.2311;;;;
2023/03/23 10:55:32;;;;;;;5;3.7;;;;;;;19.72;38.01172;933.2214;;;;
2023/03/23 10:57:58;;;;;;;5.5;3.9;;;;;;;19.76;37.44336;933.2045;;;;
2023/03/23 11:00:27;;;;;;;5.3;4.1;;;;;;;20.03;37.86328;933.1806;;;;
2023/03/23 11:02:54;;;;;;;3.7;3.2;;;;;;;20.48;38.48633;933.1821;;;;
2023/03/23 11:05:20;;;;;;;4;3.2;;;;;;;20.66;36.98242;933.1378;;;;
2023/03/23 11:07:48;;;;;;;5.2;3.5;;;;;;;20.63;37.33008;933.2148;;;;
2023/03/23 11:10:19;;;;;;;5;3.7;;;;;;;20.49;37.4707;933.1856;;;;
2023/03/23 11:12:46;;;;;;;4.4;3.9;;;;;;;20.59;37.28027;933.1741;;;;
2023/03/23 11:15:15;;;;;;;4.8;3.2;;;;;;;20.57;37.38477;933.1447;;;;
2023/03/23 11:17:41;;;;;;;3.9;3.1;;;;;;;20.76;36.04492;933.0829;;;;
2023/03/23 11:20:06;;;;;;;3.9;3.2;;;;;;;20.72;35.5498;933.1008;;;;
2023/03/23 11:22:30;;;;;;;3.6;3;;;;;;;21.09;35.90723;933.0943;;;;
2023/03/23 11:24:58;;;;;;;4.8;3.4;;;;;;;21.58;35.39746;933.1071;;;;
2023/03/23 11:27:24;;;;;;;3.4;3.1;;;;;;;22.15;33.82422;933.0857;;;;
2023/03/23 11:29:51;;;;;;;5.3;3.1;;;;;;;22.56;33.10352;933.0836;;;;
2023/03/23 11:32:18;;;;;;;3.9;2.8;;;;;;;23.06;32.71875;933.0444;;;;
2023/03/23 11:34:42;;;;;;;3.8;3;;;;;;;23.7;32.53027;932.9992;;;;
2023/03/23 11:37:12;;;;;;;4.1;2.7;;;;;;;23.93;30.99414;932.9702;;;;
2023/03/23 11:39:38;;;;;;;3.2;2.3;;;;;;;23.92;31.27539;932.8731;;;;
2023/03/23 11:42:04;;;;;;;3.7;2.5;;;;;;;24.2;30.97754;932.8802;;;;
2023/03/23 11:44:29;;;;;;;3.5;2.8;;;;;;;23.69;30.54102;932.8812;;;;
2023/03/23 11:46:54;;;;;;;3.3;2.6;;;;;;;23.74;29.14453;932.7533;;;;
2023/03/23 11:49:19;;;;;;;3.4;2.7;;;;;;;23.3;31.31348;932.7768;;;;
2023/03/23 11:51:44;;;;;;;3.8;2.4;;;;;;;23.21;31.24902;932.7654;;;;
2023/03/23 11:54:09;;;;;;;3.7;2.5;;;;;;;22.83;32.44336;932.7115;;;;
2023/03/23 11:56:37;;;;;;;2.9;2.4;;;;;;;22.92;30.7002;932.6627;;;;
2023/03/23 11:59:03;;;;;;;5.1;2.2;;;;;;;23.22;31.71973;932.7396;;;;
2023/03/23 12:01:27;;;;;;;2.9;2.3;;;;;;;22.77;32.88477;932.743;;;;
2023/03/23 12:03:56;;;;;;;4.4;2.2;;;;;;;22.71;33.44434;932.6555;;;;
2023/03/23 12:06:20;;;;;;;3.1;2.2;;;;;;;23.15;32.47754;932.6523;;;;
2023/03/23 12:08:45;;;;;;;2.6;2.4;;;;;;;23.55;31.08398;932.6959;;;;
2023/03/23 12:11:12;;;;;;;3.7;2.3;;;;;;;23.98;30.2666;932.6799;;;;
2023/03/23 12:13:36;;;;;;;4;2.2;;;;;;;24.36;29.72754;932.6404;;;;
2023/03/23 12:16:01;;;;;;;2.7;2.2;;;;;;;24.36;29.3623;932.6144;;;;
2023/03/23 12:18:28;;;;;;;2.6;2.2;;;;;;;24.42;30.4375;932.5193;;;;
2023/03/23 12:20:51;;;;;;;2.2;2;;;;;;;24.63;29.37891;932.5176;;;;
2023/03/23 12:23:16;;;;;;;2.2;2;;;;;;;24.11;29.91016;932.4408;;;;
2023/03/23 12:25:44;;;;;;;2.9;1.8;;;;;;;24.46;29.65137;932.3898;;;;
2023/03/23 12:28:09;;;;;;;2.3;2.1;;;;;;;24.5;28.10938;932.3714;;;;
2023/03/23 12:30:35;;;;;;;2.6;2.2;;;;;;;24.6;28.26953;932.3546;;;;
2023/03/23 12:33:00;;;;;;;2;1.8;;;;;;;24.78;29.61328;932.3639;;;;
2023/03/23 12:35:25;;;;;;;2.9;2.4;;;;;;;23.65;33.2207;932.3995;;;;
2023/03/23 12:37:55;;;;;;;3.7;2.7;;;;;;;22.73;35.47656;932.4322;;;;
2023/03/23 12:40:24;;;;;;;3.7;2.5;;;;;;;22.18;35.30371;932.3505;;;;
2023/03/23 12:42:49;;;;;;;3.9;2.8;;;;;;;21.89;36.06641;932.4078;;;;
2023/03/23 12:45:18;;;;;;;4;2.8;;;;;;;21.8;36.32715;932.3647;;;;
2023/03/23 12:47:44;;;;;;;4;2.9;;;;;;;21.58;36.3916;932.3382;;;;
2023/03/23 12:50:08;;;;;;;5.1;3.1;;;;;;;21.75;34.89453;932.3352;;;;
2023/03/23 12:52:39;;;;;;;3.2;2.4;;;;;;;22.13;34.38574;932.2925;;;;
2023/03/23 12:55:04;;;;;;;3.7;2.7;;;;;;;23.28;33.12207;932.223;;;;
2023/03/23 12:57:34;;;;;;;2.8;2.3;;;;;;;24.2;33.03809;932.212;;;;
2023/03/23 13:00:05;;;;;;;5;2.6;;;;;;;23.94;32.38281;932.1541;;;;
2023/03/23 13:02:31;;;;;;;3.1;2.3;;;;;;;23.57;33.1084;932.1816;;;;
2023/03/23 13:04:57;;;;;;;2.6;2.2;;;;;;;23.56;31.76758;932.1305;;;;
2023/03/23 13:07:21;;;;;;;2.8;2.3;;;;;;;23.56;32.4375;932.0898;;;;
2023/03/23 13:09:48;;;;;;;3.6;2.6;;;;;;;23.55;33.1543;932.1075;;;;
2023/03/23 13:12:12;;;;;;;3.7;2.3;;;;;;;23.29;34.875;932.2051;;;;
2023/03/23 13:14:37;;;;;;;4.4;2.6;;;;;;;22.82;34.9209;932.2115;;;;
2023/03/23 13:17:06;;;;;;;3.3;2.4;;;;;;;22.16;37.36523;932.2094;;;;
2023/03/23 13:19:36;;;;;;;2.9;2.5;;;;;;;21.8;37.76953;932.1172;;;;
2023/03/23 13:22:06;;;;;;;3.1;2.8;;;;;;;21.67;37.45313;932.132;;;;
2023/03/23 13:24:30;;;;;;;3.2;2.9;;;;;;;21.59;37.87988;932.1069;;;;
2023/03/23 13:26:57;;;;;;;4.2;2.8;;;;;;;21.35;39.66113;931.9807;;;;
2023/03/23 13:29:24;;;;;;;4;3.1;;;;;;;21.04;39.6582;932.0073;;;;
2023/03/23 13:31:46;;;;;;;4.5;2.8;;;;;;;20.93;39.6709;932.0974;;;;
2023/03/23 13:34:11;;;;;;;3.2;2.7;;;;;;;20.76;40.625;932.1241;;;;
2023/03/23 13:36:41;;;;;;;2.9;2.6;;;;;;;20.6;38.44922;932.0662;;;;
2023/03/23 13:39:08;;;;;;;4.8;2.9;;;;;;;20.62;39.73633;932.0105;;;;
2023/03/23 13:41:31;;;;;;;4.1;2.8;;;;;;;20.59;40.67969;932.0578;;;;
2023/03/23 13:43:56;;;;;;;3.3;2.2;;;;;;;20.29;40.71094;932.0542;;;;
2023/03/23 13:46:26;;;;;;;2.6;2.4;;;;;;;20.25;38.99023;932.0589;;;;
2023/03/23 13:48:51;;;;;;;3.6;2.3;;;;;;;20.25;40.1123;932.0338;;;;
2023/03/23 13:51:16;;;;;;;2.5;2.1;;;;;;;20.43;39.03027;932.0429;;;;
2023/03/23 13:53:41;;;;;;;4;2.5;;;;;;;20.53;38.96875;931.9484;;;;
2023/03/23 13:56:06;;;;;;;4.9;2.6;;;;;;;20.53;39.76367;931.9791;;;;
2023/03/23 13:58:31;;;;;;;3.4;2.1;;;;;;;20.69;37.37109;931.8775;;;;
2023/03/23 14:00:56;;;;;;;2.9;2;;;;;;;21.41;36.0498;931.845;;;;
2023/03/23 14:03:25;;;;;;;4;2.2;;;;;;;22.22;35.09668;931.8481;;;;
2023/03/23 14:05:50;;;;;;;2.5;2.1;;;;;;;22.46;35.85449;931.7823;;;;
2023/03/23 14:08:15;;;;;;;2.8;2.3;;;;;;;22.78;34.74121;931.7659;;;;
2023/03/23 14:10:40;;;;;;;2.8;2.3;;;;;;;23.13;34.45117;931.7491;;;;
2023/03/23 14:13:10;;;;;;;2;1.9;;;;;;;23.03;33.71484;931.8142;;;;
2023/03/23 14:15:44;;;;;;;2.3;2.1;;;;;;;22.79;33.67285;931.7581;;;;
2023/03/23 14:18:14;;;;;;;2.6;2.2;;;;;;;23.1;33.56738;931.7536;;;;
2023/03/23 14:20:39;;;;;;;2.7;2.1;;;;;;;22.21;34.47363;931.7156;;;;
2023/03/23 14:23:04;;;;;;;2.7;2.3;;;;;;;21.71;36.55469;931.7355;;;;
2023/03/23 14:25:32;;;;;;;3.8;2.5;;;;;;;21.3;37.67969;931.7947;;;;
2023/03/23 14:27:56;;;;;;;3.1;2.1;;;;;;;21.36;36.69043;931.7712;;;;
2023/03/23 14:30:26;;;;;;;3;2;;;;;;;21.43;36.61426;931.8691;;;;
2023/03/23 14:32:55;;;;;;;2.2;1.9;;;;;;;21.55;35.64063;931.7809;;;;
2023/03/23 14:35:21;;;;;;;2.3;2.1;;;;;;;21.38;36.48047;931.8141;;;;
2023/03/23 14:37:47;;;;;;;11.6;2.8;;;;;;;20.74;37.12988;931.8706;;;;
2023/03/23 14:40:14;;;;;;;9.3;2.5;;;;;;;20.5;38.5918;931.9366;;;;
2023/03/23 14:42:41;;;;;;;2.4;2;;;;;;;20.38;38.39551;931.9188;;;;
2023/03/23 14:45:16;;;;;;;3.5;2.1;;;;;;;20.57;37.2666;931.8951;;;;
2023/03/23 14:47:42;;;;;;;3.4;1.7;;;;;;;20.53;37.54395;931.882;;;;
2023/03/23 14:50:07;;;;;;;4.3;2.1;;;;;;;20.17;38.54004;931.9506;;;;
2023/03/23 14:52:37;;;;;;;3.3;2.2;;;;;;;20.14;37.88477;931.9988;;;;
2023/03/23 14:55:07;;;;;;;2.1;1.9;;;;;;;19.84;38.98926;931.9166;;;;
2023/03/23 14:57:32;;;;;;;2.6;2.2;;;;;;;19.78;38.84473;932.0186;;;;
2023/03/23 15:00:01;;;;;;;2.8;2.2;;;;;;;19.73;39.95996;931.9915;;;;
2023/03/23 15:02:26;;;;;;;3.3;2.3;;;;;;;19.57;39.49121;932.008;;;;